createdAt,value
2022-12-03T00:01:48.194Z,84.26
2022-12-03T00:04:14.935Z,84.69
2022-12-03T00:06:41.774Z,84.08
2022-12-03T00:09:08.514Z,83.72
2022-12-03T00:11:35.362Z,83.78
2022-12-03T00:14:02.113Z,83.73
2022-12-03T00:16:29.058Z,84.28
2022-12-03T00:18:55.890Z,84.11
2022-12-03T00:21:24.609Z,83.96
2022-12-03T00:23:51.785Z,83.67
2022-12-03T00:26:18.613Z,83.65
2022-12-03T00:28:45.358Z,83.74
2022-12-03T00:31:13.486Z,84.09
2022-12-03T00:33:40.249Z,83.86
2022-12-03T00:36:07.483Z,84.31
2022-12-03T00:38:34.320Z,84.28
2022-12-03T00:41:01.152Z,84.56
2022-12-03T00:43:27.920Z,83.80
2022-12-03T00:45:54.776Z,84.19
2022-12-03T00:48:21.572Z,84.74
2022-12-03T00:50:48.419Z,84.44
2022-12-03T00:53:15.148Z,84.64
2022-12-03T00:55:41.935Z,84.58
2022-12-03T00:58:09.532Z,84.48
2022-12-03T01:00:36.858Z,84.07
2022-12-03T01:03:04.497Z,83.47
2022-12-03T01:05:31.393Z,83.05
2022-12-03T01:07:58.145Z,82.87
2022-12-03T01:10:24.975Z,83.66
2022-12-03T01:12:51.730Z,82.22
2022-12-03T01:15:18.580Z,80.73
2022-12-03T01:17:45.328Z,80.25
2022-12-03T01:20:12.688Z,79.81
2022-12-03T01:22:39.529Z,80.51
2022-12-03T01:25:06.787Z,81.38
2022-12-03T01:27:33.505Z,81.92
2022-12-03T01:30:00.292Z,80.61
2022-12-03T01:32:27.095Z,80.80
2022-12-03T01:34:56.050Z,81.58
2022-12-03T01:37:25.272Z,81.67
2022-12-03T01:39:52.184Z,82.15
2022-12-03T01:42:23.633Z,84.01
2022-12-03T01:44:56.122Z,85.40
2022-12-03T01:47:33.172Z,85.53
2022-12-03T01:50:04.817Z,85.19
2022-12-03T01:52:37.052Z,85.27
2022-12-03T01:55:08.044Z,86.94
2022-12-03T01:57:46.025Z,86.98
2022-12-03T02:00:15.346Z,88.56
2022-12-03T02:02:42.570Z,88.90
2022-12-03T02:05:18.123Z,88.27
2022-12-03T02:07:45.185Z,88.32
2022-12-03T02:10:14.137Z,88.24
2022-12-03T02:12:47.734Z,88.19
2022-12-03T02:15:15.050Z,88.43
2022-12-03T02:17:43.035Z,88.20
2022-12-03T02:20:11.646Z,89.03
2022-12-03T02:22:47.967Z,89.37
2022-12-03T02:25:18.303Z,89.67
2022-12-03T02:27:45.777Z,89.64
2022-12-03T02:30:17.334Z,89.66
2022-12-03T02:32:44.370Z,90.28
2022-12-03T02:35:20.540Z,91.62
2022-12-03T02:37:50.893Z,91.58
2022-12-03T02:40:24.848Z,90.69
2022-12-03T02:42:55.529Z,90.44
2022-12-03T02:45:36.096Z,90.48
2022-12-03T02:48:08.667Z,90.49
2022-12-03T02:50:42.486Z,89.97
2022-12-03T02:53:17.393Z,89.82
2022-12-03T02:55:44.936Z,89.44
2022-12-03T02:58:12.213Z,89.83
2022-12-03T03:00:39.860Z,90.80
2022-12-03T03:03:08.612Z,90.54
2022-12-03T03:05:38.581Z,90.55
2022-12-03T03:08:08.132Z,91.16
2022-12-03T03:10:37.321Z,90.47
2022-12-03T03:13:08.957Z,90.28
2022-12-03T03:15:37.325Z,90.97
2022-12-03T03:18:05.623Z,90.99
2022-12-03T03:20:32.469Z,91.62
2022-12-03T03:23:12.899Z,92.47
2022-12-03T03:25:42.470Z,92.68
2022-12-03T03:28:09.922Z,92.09
2022-12-03T03:30:52.185Z,92.35
2022-12-03T03:33:19.182Z,92.79
2022-12-03T03:35:48.116Z,92.71
2022-12-03T03:38:18.886Z,93.02
2022-12-03T03:40:48.165Z,92.66
2022-12-03T03:43:15.028Z,92.21
2022-12-03T03:45:42.775Z,92.13
2022-12-03T03:48:10.489Z,91.82
2022-12-03T03:50:37.611Z,92.31
2022-12-03T03:53:05.812Z,91.59
2022-12-03T03:55:33.754Z,91.56
2022-12-03T03:58:01.028Z,90.89
2022-12-03T04:00:27.995Z,91.38
2022-12-03T04:02:54.798Z,90.92
2022-12-03T04:05:23.846Z,90.65
2022-12-03T04:07:51.086Z,90.94
2022-12-03T04:10:36.343Z,91.54
2022-12-03T04:13:03.904Z,92.00
2022-12-03T04:15:30.920Z,91.38
2022-12-03T04:18:17.669Z,91.02
2022-12-03T04:20:44.552Z,91.00
2022-12-03T04:23:11.350Z,90.72
2022-12-03T04:25:56.867Z,90.49
2022-12-03T04:28:42.391Z,91.76
2022-12-03T04:31:27.739Z,90.97
2022-12-03T04:34:13.260Z,91.13
2022-12-03T04:36:40.078Z,90.83
2022-12-03T04:39:06.826Z,91.01
2022-12-03T04:41:33.651Z,91.05
2022-12-03T04:44:18.984Z,90.52
2022-12-03T04:46:45.779Z,90.43
2022-12-03T04:49:12.775Z,90.50
2022-12-03T04:51:39.637Z,90.80
2022-12-03T04:54:06.446Z,90.29
2022-12-03T04:56:33.321Z,90.34
2022-12-03T04:59:00.078Z,90.42
2022-12-03T05:01:27.047Z,90.52
2022-12-03T05:03:53.756Z,90.50
2022-12-03T05:06:20.803Z,90.15
2022-12-03T05:08:47.643Z,89.98
2022-12-03T05:11:14.698Z,90.31
2022-12-03T05:13:43.093Z,91.01
2022-12-03T05:16:10.334Z,91.20
2022-12-03T05:18:37.112Z,91.30
2022-12-03T05:21:04.090Z,91.47
2022-12-03T05:23:32.158Z,91.82
2022-12-03T05:25:58.954Z,91.57
2022-12-03T05:28:25.757Z,90.95
2022-12-03T05:30:52.876Z,90.70
2022-12-03T05:33:20.509Z,90.79
2022-12-03T05:35:47.703Z,90.92
2022-12-03T05:38:14.388Z,91.90
2022-12-03T05:40:41.276Z,92.12
2022-12-03T05:43:08.360Z,91.69
2022-12-03T05:45:37.408Z,91.74
2022-12-03T05:48:06.555Z,93.02
2022-12-03T05:50:35.514Z,92.90
2022-12-03T05:53:15.275Z,93.62
2022-12-03T05:55:42.221Z,93.35
2022-12-03T05:58:09.589Z,93.22
2022-12-03T06:00:42.449Z,94.08
2022-12-03T06:03:10.746Z,93.53
2022-12-03T06:05:37.855Z,93.45
2022-12-03T06:08:05.078Z,93.28
2022-12-03T06:10:32.623Z,94.07
2022-12-03T06:12:59.561Z,93.80
2022-12-03T06:15:26.309Z,93.48
2022-12-03T06:17:53.684Z,93.97
2022-12-03T06:20:20.811Z,93.62
2022-12-03T06:22:48.224Z,92.96
2022-12-03T06:25:15.678Z,92.88
2022-12-03T06:27:42.643Z,93.20
2022-12-03T06:30:12.812Z,92.65
2022-12-03T06:32:39.568Z,92.83
2022-12-03T06:35:06.783Z,92.57
2022-12-03T06:37:33.652Z,92.21
2022-12-03T06:40:00.384Z,93.11
2022-12-03T06:42:27.377Z,93.29
2022-12-03T06:44:54.314Z,93.35
2022-12-03T06:47:21.402Z,93.68
2022-12-03T06:49:48.134Z,94.07
2022-12-03T06:52:15.036Z,94.00
2022-12-03T06:54:41.961Z,94.52
2022-12-03T06:57:08.738Z,94.01
2022-12-03T06:59:37.607Z,93.82
2022-12-03T07:02:05.387Z,92.81
2022-12-03T07:04:32.153Z,92.46
2022-12-03T07:06:58.962Z,92.93
2022-12-03T07:09:25.770Z,92.17
2022-12-03T07:11:52.676Z,91.25
2022-12-03T07:14:20.959Z,90.50
2022-12-03T07:16:47.862Z,89.79
2022-12-03T07:19:14.733Z,90.54
2022-12-03T07:21:41.831Z,91.45
2022-12-03T07:24:09.149Z,91.47
2022-12-03T07:26:36.242Z,91.49
2022-12-03T07:29:03.503Z,91.92
2022-12-03T07:31:30.660Z,91.35
2022-12-03T07:33:57.453Z,92.14
2022-12-03T07:36:24.232Z,91.78
2022-12-03T07:38:51.015Z,92.13
2022-12-03T07:41:17.840Z,92.42
2022-12-03T07:43:45.307Z,92.28
2022-12-03T07:46:12.260Z,91.81
2022-12-03T07:48:39.098Z,91.84
2022-12-03T07:51:06.056Z,91.86
2022-12-03T07:53:33.009Z,91.82
2022-12-03T07:55:59.881Z,91.90
2022-12-03T07:58:26.606Z,92.02
2022-12-03T08:00:53.726Z,91.99
2022-12-03T08:03:20.501Z,92.40
2022-12-03T08:05:47.404Z,92.26
2022-12-03T08:08:14.377Z,92.07
2022-12-03T08:10:41.226Z,92.22
2022-12-03T08:13:13.852Z,92.03
2022-12-03T08:15:40.765Z,92.26
2022-12-03T08:18:19.219Z,92.91
2022-12-03T08:20:48.450Z,93.07
2022-12-03T08:23:23.402Z,92.54
2022-12-03T08:25:51.931Z,92.18
2022-12-03T08:28:21.328Z,92.42
2022-12-03T08:31:05.864Z,92.67
2022-12-03T08:33:35.597Z,92.67
2022-12-03T08:36:29.271Z,92.98
2022-12-03T08:38:59.609Z,93.16
2022-12-03T08:41:45.299Z,93.13
2022-12-03T08:44:29.121Z,93.97
2022-12-03T08:47:09.564Z,93.81
2022-12-03T08:49:37.522Z,94.05
2022-12-03T08:52:15.075Z,93.33
2022-12-03T08:54:43.246Z,93.13
2022-12-03T08:57:36.150Z,93.16
2022-12-03T09:00:21.654Z,93.26
2022-12-03T09:02:51.627Z,92.78
2022-12-03T09:05:30.912Z,92.66
2022-12-03T09:07:59.423Z,92.35
2022-12-03T09:10:26.285Z,92.21
2022-12-03T09:12:53.240Z,92.85
2022-12-03T09:15:20.167Z,92.91
2022-12-03T09:17:49.905Z,92.67
2022-12-03T09:20:16.905Z,92.17
2022-12-03T09:22:43.727Z,92.79
2022-12-03T09:25:10.602Z,93.33
2022-12-03T09:27:37.355Z,93.12
2022-12-03T09:30:05.455Z,92.91
2022-12-03T09:32:32.368Z,93.49
2022-12-03T09:34:59.251Z,93.26
2022-12-03T09:37:26.042Z,93.04
2022-12-03T09:39:52.875Z,92.81
2022-12-03T09:42:19.621Z,89.47
2022-12-03T09:44:46.556Z,89.88
2022-12-03T09:47:13.510Z,88.99
2022-12-03T09:49:40.756Z,88.58
2022-12-03T09:52:07.955Z,89.66
2022-12-03T09:54:35.416Z,90.09
2022-12-03T09:57:04.278Z,89.56
2022-12-03T09:59:33.536Z,90.70
2022-12-03T10:02:01.584Z,90.52
2022-12-03T10:04:29.821Z,91.19
2022-12-03T10:06:58.337Z,88.43
2022-12-03T10:09:28.276Z,88.77
2022-12-03T10:11:57.442Z,86.38
2022-12-03T10:14:24.533Z,88.10
2022-12-03T10:16:51.604Z,89.04
2022-12-03T10:19:39.696Z,89.97
2022-12-03T10:22:06.585Z,90.63
2022-12-03T10:24:35.487Z,91.01
2022-12-03T10:27:05.282Z,91.40
2022-12-03T10:29:34.957Z,91.70
2022-12-03T10:32:10.451Z,91.72
2022-12-03T10:34:42.055Z,92.39
2022-12-03T10:37:17.991Z,92.88
2022-12-03T10:40:21.372Z,94.01
2022-12-03T10:42:48.140Z,94.28
2022-12-03T10:45:20.592Z,93.39
2022-12-03T10:48:21.428Z,92.86
2022-12-03T10:50:59.489Z,92.37
2022-12-03T10:53:29.905Z,91.59
2022-12-03T10:55:59.773Z,90.97
2022-12-03T10:58:34.134Z,90.00
2022-12-03T11:01:06.399Z,89.13
2022-12-03T11:03:37.053Z,88.01
2022-12-03T11:06:04.071Z,88.41
2022-12-03T11:08:35.797Z,87.11
2022-12-03T11:11:04.820Z,87.32
2022-12-03T11:13:35.838Z,88.86
2022-12-03T11:16:05.672Z,88.86
2022-12-03T11:18:38.643Z,88.99
2022-12-03T11:21:14.518Z,88.48
2022-12-03T11:23:44.300Z,89.78
2022-12-03T11:26:37.283Z,88.55
2022-12-03T11:29:13.131Z,88.29
2022-12-03T11:31:47.592Z,87.90
2022-12-03T11:34:20.623Z,88.15
2022-12-03T11:37:12.446Z,88.92
2022-12-03T11:39:47.999Z,89.41
2022-12-03T11:42:26.754Z,89.54
2022-12-03T11:45:02.747Z,89.52
2022-12-03T11:47:32.966Z,89.01
2022-12-03T11:50:00.826Z,89.07
2022-12-03T11:52:38.579Z,88.79
2022-12-03T11:55:17.828Z,87.40
2022-12-03T11:57:45.330Z,88.23
2022-12-03T12:00:21.868Z,89.39
2022-12-03T12:02:50.301Z,89.70
2022-12-03T12:05:22.301Z,89.27
2022-12-03T12:07:50.252Z,89.08
2022-12-03T12:10:46.816Z,89.64
2022-12-03T12:13:31.825Z,90.13
2022-12-03T12:16:00.402Z,89.94
2022-12-03T12:18:42.238Z,90.77
2022-12-03T12:21:43.115Z,90.47
2022-12-03T12:24:41.274Z,90.00
2022-12-03T12:27:10.712Z,90.67
2022-12-03T12:29:39.352Z,91.12
2022-12-03T12:32:09.286Z,91.27
2022-12-03T12:34:44.726Z,91.04
2022-12-03T12:37:21.685Z,91.16
2022-12-03T12:39:54.478Z,91.30
2022-12-03T12:42:29.414Z,92.42
2022-12-03T12:45:14.460Z,91.67
2022-12-03T12:48:15.446Z,91.29
2022-12-03T12:50:46.187Z,91.32
2022-12-03T12:53:25.083Z,90.60
2022-12-03T12:56:06.712Z,91.03
2022-12-03T12:58:34.445Z,91.91
2022-12-03T13:01:17.952Z,91.28
2022-12-03T13:03:44.981Z,91.32
2022-12-03T13:06:16.204Z,89.95
2022-12-03T13:08:45.588Z,90.03
2022-12-03T13:11:38.841Z,90.34
2022-12-03T13:14:23.583Z,90.47
2022-12-03T13:16:52.460Z,90.57
2022-12-03T13:19:28.576Z,90.01
2022-12-03T13:21:58.043Z,90.00
2022-12-03T13:24:41.335Z,91.73
2022-12-03T13:27:17.517Z,87.83
2022-12-03T13:29:45.119Z,88.76
2022-12-03T13:32:19.707Z,85.61
2022-12-03T13:34:47.545Z,86.20
2022-12-03T13:37:18.805Z,85.89
2022-12-03T13:39:50.454Z,87.19
2022-12-03T13:42:46.098Z,88.08
2022-12-03T13:45:15.684Z,88.55
2022-12-03T13:48:00.743Z,89.02
2022-12-03T13:50:38.727Z,89.08
2022-12-03T13:53:11.352Z,89.70
2022-12-03T13:55:42.891Z,90.28
2022-12-03T13:58:09.784Z,89.80
2022-12-03T14:00:36.622Z,90.19
2022-12-03T14:03:03.713Z,90.25
2022-12-03T14:05:30.680Z,90.54
2022-12-03T14:08:02.365Z,90.47
2022-12-03T14:10:29.757Z,91.00
2022-12-03T14:12:57.161Z,90.27
2022-12-03T14:15:25.048Z,89.66
2022-12-03T14:17:52.010Z,90.06
2022-12-03T14:20:19.310Z,89.76
2022-12-03T14:22:46.200Z,90.03
2022-12-03T14:25:13.117Z,90.15
2022-12-03T14:27:39.963Z,89.39
2022-12-03T14:30:07.534Z,89.53
2022-12-03T14:32:34.246Z,88.99
2022-12-03T14:35:05.131Z,88.90
2022-12-03T14:37:35.347Z,88.86
2022-12-03T14:40:03.840Z,89.19
2022-12-03T14:42:30.914Z,89.16
2022-12-03T14:44:57.824Z,89.47
2022-12-03T14:47:24.698Z,89.29
2022-12-03T14:49:52.772Z,89.01
2022-12-03T14:52:20.561Z,88.82
2022-12-03T14:54:47.271Z,89.46
2022-12-03T14:57:15.563Z,90.21
2022-12-03T14:59:43.692Z,90.37
2022-12-03T15:02:11.869Z,90.56
2022-12-03T15:04:39.941Z,90.83
2022-12-03T15:07:07.108Z,90.60
2022-12-03T15:09:34.011Z,90.55
2022-12-03T15:12:02.753Z,90.67
2022-12-03T15:14:29.567Z,90.68
2022-12-03T15:16:56.497Z,90.33
2022-12-03T15:19:23.271Z,90.07
2022-12-03T15:21:50.125Z,90.36
2022-12-03T15:24:17.151Z,90.46
2022-12-03T15:26:48.740Z,90.55
2022-12-03T15:29:19.665Z,90.59
2022-12-03T15:31:46.530Z,90.33
2022-12-03T15:34:17.364Z,90.62
2022-12-03T15:36:48.336Z,90.67
2022-12-03T15:39:15.063Z,90.51
2022-12-03T15:41:41.926Z,90.93
2022-12-03T15:44:09.221Z,91.03
2022-12-03T15:46:36.528Z,91.31
2022-12-03T15:49:03.409Z,91.32
2022-12-03T15:51:30.334Z,91.36
2022-12-03T15:53:57.230Z,91.29
2022-12-03T15:56:24.162Z,91.20
2022-12-03T15:58:51.151Z,91.07
2022-12-03T16:01:18.470Z,91.55
2022-12-03T16:03:45.427Z,91.48
2022-12-03T16:06:12.779Z,92.80
2022-12-03T16:08:39.521Z,92.90
2022-12-03T16:11:06.485Z,92.67
2022-12-03T16:13:33.479Z,93.10
2022-12-03T16:16:00.531Z,93.12
2022-12-03T16:18:27.485Z,92.19
2022-12-03T16:20:54.545Z,92.23
2022-12-03T16:23:21.468Z,91.75
2022-12-03T16:25:48.562Z,91.98
2022-12-03T16:28:15.663Z,91.38
2022-12-03T16:30:42.854Z,91.78
2022-12-03T16:33:09.823Z,91.89
2022-12-03T16:35:38.291Z,91.69
2022-12-03T16:38:05.354Z,92.02
2022-12-03T16:40:32.270Z,91.81
2022-12-03T16:42:59.330Z,91.66
2022-12-03T16:45:29.256Z,91.53
2022-12-03T16:47:56.178Z,91.92
2022-12-03T16:50:29.555Z,91.76
2022-12-03T16:52:57.650Z,91.65
2022-12-03T16:55:24.784Z,91.62
2022-12-03T16:57:51.668Z,91.78
2022-12-03T17:00:21.736Z,91.72
2022-12-03T17:02:48.987Z,91.59
2022-12-03T17:05:15.915Z,91.46
2022-12-03T17:07:42.766Z,91.75
2022-12-03T17:10:10.347Z,91.78
2022-12-03T17:13:07.203Z,92.04
2022-12-03T17:15:25.425Z,92.03
2022-12-03T17:17:53.311Z,91.12
2022-12-03T17:20:20.212Z,91.94
2022-12-03T17:22:47.369Z,91.82
2022-12-03T17:25:15.562Z,91.59
2022-12-03T17:27:45.402Z,92.09
2022-12-03T17:30:13.514Z,92.23
2022-12-03T17:32:40.569Z,92.72
2022-12-03T17:35:08.323Z,92.76
2022-12-03T17:37:35.371Z,92.76
2022-12-03T17:40:02.748Z,92.90
2022-12-03T17:42:29.553Z,93.00
2022-12-03T17:44:56.461Z,92.17
2022-12-03T17:47:24.484Z,92.32
2022-12-03T17:49:51.647Z,92.28
2022-12-03T17:52:19.000Z,91.92
2022-12-03T17:55:10.019Z,92.09
2022-12-03T17:57:33.887Z,91.90
2022-12-03T18:00:01.521Z,91.76
2022-12-03T18:02:39.434Z,92.07
2022-12-03T18:05:06.579Z,91.88
2022-12-03T18:07:34.122Z,91.36
2022-12-03T18:10:01.239Z,92.39
2022-12-03T18:12:28.024Z,92.13
2022-12-03T18:14:54.872Z,91.44
2022-12-03T18:17:21.659Z,92.17
2022-12-03T18:19:48.515Z,92.39
2022-12-03T18:22:15.524Z,92.18
2022-12-03T18:24:45.022Z,92.18
2022-12-03T18:27:13.305Z,91.59
2022-12-03T18:29:40.146Z,92.14
2022-12-03T18:32:27.168Z,91.88
2022-12-03T18:34:55.599Z,91.78
2022-12-03T18:37:26.183Z,92.12
2022-12-03T18:39:53.734Z,92.35
2022-12-03T18:42:23.564Z,92.29
2022-12-03T18:44:53.783Z,92.38
2022-12-03T18:47:23.593Z,92.31
2022-12-03T18:49:53.958Z,92.16
2022-12-03T18:52:25.420Z,92.14
2022-12-03T18:54:56.501Z,91.93
2022-12-03T18:57:23.303Z,92.17
2022-12-03T18:59:50.072Z,92.00
2022-12-03T19:05:08.560Z,91.82
2022-12-03T19:07:35.569Z,91.61
2022-12-03T19:10:03.174Z,91.65
2022-12-03T19:12:31.194Z,91.46
2022-12-03T19:14:58.252Z,91.71
2022-12-03T19:17:27.192Z,91.69
2022-12-03T19:19:54.980Z,91.90
2022-12-03T19:22:24.596Z,92.00
2022-12-03T19:24:51.584Z,92.00
2022-12-03T19:27:19.039Z,91.99
2022-12-03T19:29:48.817Z,91.83
2022-12-03T19:32:15.891Z,91.20
2022-12-03T19:34:42.808Z,91.52
2022-12-03T19:37:09.801Z,92.40
2022-12-03T19:39:36.873Z,93.39
2022-12-03T19:42:03.849Z,93.71
2022-12-03T19:44:30.849Z,93.61
2022-12-03T19:46:57.664Z,93.67
2022-12-03T19:49:25.837Z,93.50
2022-12-03T19:51:53.012Z,93.06
2022-12-03T19:54:20.003Z,92.87
2022-12-03T19:56:46.779Z,92.61
2022-12-03T19:59:14.574Z,92.45
2022-12-03T20:01:43.147Z,92.03
2022-12-03T20:04:12.060Z,92.57
2022-12-03T20:06:39.625Z,93.11
2022-12-03T20:09:16.601Z,93.20
2022-12-03T20:11:44.654Z,92.94
2022-12-03T20:14:16.423Z,93.30
2022-12-03T20:16:44.655Z,93.07
2022-12-03T20:19:13.761Z,92.96
2022-12-03T20:21:41.622Z,92.88
2022-12-03T20:24:10.291Z,92.56
2022-12-03T20:26:37.133Z,92.36
2022-12-03T20:29:04.103Z,92.60
2022-12-03T20:31:32.064Z,92.03
2022-12-03T20:34:01.492Z,92.58
2022-12-03T20:36:29.925Z,92.48
2022-12-03T20:38:58.210Z,92.00
2022-12-03T20:41:25.459Z,92.09
2022-12-03T20:43:53.616Z,92.33
2022-12-03T20:46:29.376Z,92.16
2022-12-03T20:48:56.971Z,92.46
2022-12-03T20:51:26.000Z,92.60
2022-12-03T20:53:52.864Z,92.56
2022-12-03T20:56:26.916Z,92.34
2022-12-03T20:58:54.463Z,93.00
2022-12-03T21:01:24.403Z,92.17
2022-12-03T21:03:53.191Z,92.23
2022-12-03T21:06:21.341Z,92.40
2022-12-03T21:08:48.860Z,92.36
2022-12-03T21:11:21.741Z,92.46
2022-12-03T21:13:48.754Z,92.28
2022-12-03T21:16:39.500Z,92.31
2022-12-03T21:19:08.348Z,92.33
2022-12-03T21:21:35.632Z,92.72
2022-12-03T21:24:02.594Z,93.26
2022-12-03T21:26:29.531Z,93.34
2022-12-03T21:28:56.474Z,93.05
2022-12-03T21:31:25.893Z,93.66
2022-12-03T21:33:54.312Z,93.02
2022-12-03T21:36:21.411Z,92.37
2022-12-03T21:38:48.674Z,92.21
2022-12-03T21:41:15.690Z,92.30
2022-12-03T21:43:43.510Z,92.23
2022-12-03T21:47:08.407Z,92.03
2022-12-03T21:49:01.788Z,92.02
2022-12-03T21:51:28.620Z,91.86
2022-12-03T21:53:55.646Z,91.82
2022-12-03T21:56:22.503Z,92.05
2022-12-03T21:58:49.586Z,92.60
2022-12-03T22:01:24.340Z,92.78
2022-12-03T22:03:51.724Z,93.42
2022-12-03T22:06:19.300Z,93.12
2022-12-03T22:08:46.911Z,92.93
2022-12-03T22:11:16.996Z,92.88
2022-12-03T22:13:44.553Z,92.90
2022-12-03T22:16:14.014Z,93.12
2022-12-03T22:18:41.840Z,93.68
2022-12-03T22:21:11.905Z,94.22
2022-12-03T22:23:39.082Z,94.38
2022-12-03T22:26:09.135Z,94.56
2022-12-03T22:28:36.026Z,94.32
2022-12-03T22:31:07.424Z,94.18
2022-12-03T22:33:35.107Z,93.70
2022-12-03T22:36:05.141Z,93.34
2022-12-03T22:38:32.589Z,92.27
2022-12-03T22:40:59.852Z,90.34
2022-12-03T22:43:26.764Z,89.52
2022-12-03T22:45:55.470Z,88.52
2022-12-03T22:48:23.653Z,87.21
2022-12-03T22:50:51.792Z,87.45
2022-12-03T22:53:19.685Z,86.72
2022-12-03T22:55:58.721Z,86.68
2022-12-03T22:58:26.853Z,87.52
2022-12-03T23:00:59.776Z,88.59
2022-12-03T23:03:29.767Z,89.45
2022-12-03T23:05:56.967Z,89.69
2022-12-03T23:08:23.962Z,90.03
2022-12-03T23:10:52.826Z,90.06
2022-12-03T23:13:20.923Z,90.47
2022-12-03T23:15:50.140Z,90.34
2022-12-03T23:18:18.194Z,90.72
2022-12-03T23:20:47.148Z,90.65
2022-12-03T23:23:15.083Z,91.20
2022-12-03T23:25:42.328Z,91.26
2022-12-03T23:28:10.213Z,91.15
2022-12-03T23:30:39.434Z,91.55
2022-12-03T23:33:06.766Z,91.55
2022-12-03T23:35:34.093Z,91.56
2022-12-03T23:38:00.881Z,91.82
2022-12-03T23:40:27.769Z,91.46
2022-12-03T23:42:55.126Z,91.38
2022-12-03T23:45:21.955Z,91.63
2022-12-03T23:47:50.459Z,91.33
2022-12-03T23:50:20.528Z,91.28
2022-12-03T23:52:47.231Z,91.05
2022-12-03T23:55:14.044Z,91.22
2022-12-03T23:57:41.119Z,91.14
